Chelan Falls, Washington
Current Conditions -  °F | °C
As of 10:38 PM on Monday 20 Oct 2014 (Local Time) from KEAT Reporting Station
Few Clouds Few Clouds  
Wind Chill: 53°   Ceiling: Unl
Heat Index: 53°   Visibility: 10mi
Dew Point: 48°   Wind: 7mph
Humidity: 83%   Direction: 60°ENE
Pressure: 29.78"   Gusts: NA
Location:  47.8°N, 119.99°W
Report Text: KEAT 210538Z AUTO 06006KT 10SM FEW014 12/09 A2978 RMK AO2 T01170089
Loading
Personal Weather Stations






























Interactive Weather Map
Tropical Storm Tracking
New forecast layout! Learn more

10-Day Weather Forecast

Advertisements
Track Severe Weather on mobile